sensor_id;sensor_type;location;lat;lon;timestamp;pressure;altitude;pressure_sealevel;temperature
15360;BMP280;7779;49.596;11.070;2024-02-26T00:01:40;96681.22;;;4.97
15360;BMP280;7779;49.596;11.070;2024-02-26T00:04:05;96677.00;;;4.96
15360;BMP280;7779;49.596;11.070;2024-02-26T00:06:31;96679.50;;;4.96
15360;BMP280;7779;49.596;11.070;2024-02-26T00:08:58;96674.34;;;4.93
15360;BMP280;7779;49.596;11.070;2024-02-26T00:11:23;96676.84;;;4.93
15360;BMP280;7779;49.596;11.070;2024-02-26T00:13:49;96676.78;;;4.91
15360;BMP280;7779;49.596;11.070;2024-02-26T00:16:15;96670.09;;;4.90
15360;BMP280;7779;49.596;11.070;2024-02-26T00:18:40;96675.78;;;4.88
15360;BMP280;7779;49.596;11.070;2024-02-26T00:21:06;96671.50;;;4.85
15360;BMP280;7779;49.596;11.070;2024-02-26T00:23:32;96674.78;;;4.84
15360;BMP280;7779;49.596;11.070;2024-02-26T00:25:58;96672.22;;;4.83
15360;BMP280;7779;49.596;11.070;2024-02-26T00:28:23;96672.91;;;4.80
15360;BMP280;7779;49.596;11.070;2024-02-26T00:30:50;96667.00;;;4.78
15360;BMP280;7779;49.596;11.070;2024-02-26T00:33:22;96664.47;;;4.77
15360;BMP280;7779;49.596;11.070;2024-02-26T00:35:48;96661.81;;;4.74
15360;BMP280;7779;49.596;11.070;2024-02-26T00:38:14;96655.13;;;4.73
15360;BMP280;7779;49.596;11.070;2024-02-26T00:40:40;96650.88;;;4.70
15360;BMP280;7779;49.596;11.070;2024-02-26T00:43:07;96652.53;;;4.70
15360;BMP280;7779;49.596;11.070;2024-02-26T00:45:32;96647.47;;;4.68
15360;BMP280;7779;49.596;11.070;2024-02-26T00:47:59;96651.59;;;4.68
15360;BMP280;7779;49.596;11.070;2024-02-26T00:50:27;96643.22;;;4.66
15360;BMP280;7779;49.596;11.070;2024-02-26T00:52:52;96638.94;;;4.64
15360;BMP280;7779;49.596;11.070;2024-02-26T00:55:18;96648.84;;;4.64
15360;BMP280;7779;49.596;11.070;2024-02-26T00:57:44;96643.81;;;4.62
15360;BMP280;7779;49.596;11.070;2024-02-26T01:00:10;96637.94;;;4.60
15360;BMP280;7779;49.596;11.070;2024-02-26T01:02:36;96642.75;;;4.57
15360;BMP280;7779;49.596;11.070;2024-02-26T01:05:02;96646.00;;;4.56
15360;BMP280;7779;49.596;11.070;2024-02-26T01:07:28;96647.53;;;4.54
15360;BMP280;7779;49.596;11.070;2024-02-26T01:09:54;96638.38;;;4.53
15360;BMP280;7779;49.596;11.070;2024-02-26T01:12:19;96644.13;;;4.52
15360;BMP280;7779;49.596;11.070;2024-02-26T01:14:45;96651.56;;;4.52
15360;BMP280;7779;49.596;11.070;2024-02-26T01:17:11;96654.06;;;4.52
15360;BMP280;7779;49.596;11.070;2024-02-26T01:19:36;96648.31;;;4.53
15360;BMP280;7779;49.596;11.070;2024-02-26T01:22:02;96648.47;;;4.56
15360;BMP280;7779;49.596;11.070;2024-02-26T01:24:29;96638.72;;;4.59
15360;BMP280;7779;49.596;11.070;2024-02-26T01:26:54;96643.91;;;4.64
15360;BMP280;7779;49.596;11.070;2024-02-26T01:29:20;96643.22;;;4.66
15360;BMP280;7779;49.596;11.070;2024-02-26T01:31:46;96645.84;;;4.69
15360;BMP280;7779;49.596;11.070;2024-02-26T01:34:11;96655.13;;;4.73
15360;BMP280;7779;49.596;11.070;2024-02-26T01:36:37;96650.34;;;4.76
15360;BMP280;7779;49.596;11.070;2024-02-26T01:39:03;96650.50;;;4.79
15360;BMP280;7779;49.596;11.070;2024-02-26T01:41:29;96640.72;;;4.82
15360;BMP280;7779;49.596;11.070;2024-02-26T01:43:54;96640.88;;;4.85
15360;BMP280;7779;49.596;11.070;2024-02-26T01:46:20;96634.53;;;4.90
15360;BMP280;7779;49.596;11.070;2024-02-26T01:48:48;96636.53;;;4.97
15360;BMP280;7779;49.596;11.070;2024-02-26T01:51:16;96630.25;;;5.03
15360;BMP280;7779;49.596;11.070;2024-02-26T01:53:43;96638.06;;;5.10
15360;BMP280;7779;49.596;11.070;2024-02-26T01:56:09;96632.78;;;5.20
15360;BMP280;7779;49.596;11.070;2024-02-26T01:58:35;96630.81;;;5.31
15360;BMP280;7779;49.596;11.070;2024-02-26T02:01:02;96622.19;;;5.40
15360;BMP280;7779;49.596;11.070;2024-02-26T02:03:30;96622.69;;;5.50
15360;BMP280;7779;49.596;11.070;2024-02-26T02:05:56;96619.94;;;5.62
15360;BMP280;7779;49.596;11.070;2024-02-26T02:08:23;96627.91;;;5.72
15360;BMP280;7779;49.596;11.070;2024-02-26T02:10:50;96619.28;;;5.82
15360;BMP280;7779;49.596;11.070;2024-02-26T02:13:16;96623.22;;;5.95
15360;BMP280;7779;49.596;11.070;2024-02-26T02:15:42;96622.09;;;6.06
15360;BMP280;7779;49.596;11.070;2024-02-26T02:18:07;96622.56;;;6.17
15360;BMP280;7779;49.596;11.070;2024-02-26T02:20:34;96628.03;;;6.27
15360;BMP280;7779;49.596;11.070;2024-02-26T02:23:00;96630.13;;;6.37
15360;BMP280;7779;49.596;11.070;2024-02-26T02:25:26;96633.00;;;6.44
15360;BMP280;7779;49.596;11.070;2024-02-26T02:27:54;96642.47;;;6.53
15360;BMP280;7779;49.596;11.070;2024-02-26T02:30:28;96640.31;;;6.60
15360;BMP280;7779;49.596;11.070;2024-02-26T02:32:57;96638.03;;;6.64
15360;BMP280;7779;49.596;11.070;2024-02-26T02:35:24;96636.63;;;6.69
15360;BMP280;7779;49.596;11.070;2024-02-26T02:37:52;96636.03;;;6.75
15360;BMP280;7779;49.596;11.070;2024-02-26T02:40:18;96630.31;;;6.77
15360;BMP280;7779;49.596;11.070;2024-02-26T02:42:44;96637.13;;;6.81
15360;BMP280;7779;49.596;11.070;2024-02-26T02:45:10;96637.28;;;6.84
15360;BMP280;7779;49.596;11.070;2024-02-26T02:47:36;96637.44;;;6.89
15360;BMP280;7779;49.596;11.070;2024-02-26T02:50:03;96635.94;;;6.92
15360;BMP280;7779;49.596;11.070;2024-02-26T02:52:29;96635.28;;;6.96
15360;BMP280;7779;49.596;11.070;2024-02-26T02:54:55;96629.69;;;7.00
15360;BMP280;7779;49.596;11.070;2024-02-26T02:57:21;96625.69;;;7.03
15360;BMP280;7779;49.596;11.070;2024-02-26T02:59:46;96626.59;;;7.05
15360;BMP280;7779;49.596;11.070;2024-02-26T03:02:12;96626.69;;;7.08
15360;BMP280;7779;49.596;11.070;2024-02-26T03:04:38;96630.16;;;7.12
15360;BMP280;7779;49.596;11.070;2024-02-26T03:07:03;96631.16;;;7.15
15360;BMP280;7779;49.596;11.070;2024-02-26T03:09:29;96620.44;;;7.18
15360;BMP280;7779;49.596;11.070;2024-02-26T03:11:55;96619.00;;;7.23
15360;BMP280;7779;49.596;11.070;2024-02-26T03:14:20;96617.56;;;7.28
15360;BMP280;7779;49.596;11.070;2024-02-26T03:16:46;96617.75;;;7.32
15360;BMP280;7779;49.596;11.070;2024-02-26T03:19:15;96620.50;;;7.38
15360;BMP280;7779;49.596;11.070;2024-02-26T03:21:44;96619.91;;;7.43
15360;BMP280;7779;49.596;11.070;2024-02-26T03:24:09;96619.38;;;7.50
15360;BMP280;7779;49.596;11.070;2024-02-26T03:26:36;96615.47;;;7.57
15360;BMP280;7779;49.596;11.070;2024-02-26T03:29:02;96615.75;;;7.64
15360;BMP280;7779;49.596;11.070;2024-02-26T03:31:28;96609.31;;;7.69
15360;BMP280;7779;49.596;11.070;2024-02-26T03:33:54;96610.44;;;7.76
15360;BMP280;7779;49.596;11.070;2024-02-26T03:36:20;96597.28;;;7.79
15360;BMP280;7779;49.596;11.070;2024-02-26T03:38:47;96602.50;;;7.85
15360;BMP280;7779;49.596;11.070;2024-02-26T03:41:13;96603.59;;;7.92
15360;BMP280;7779;49.596;11.070;2024-02-26T03:43:39;96603.81;;;7.98
15360;BMP280;7779;49.596;11.070;2024-02-26T03:46:08;96607.34;;;8.03
15360;BMP280;7779;49.596;11.070;2024-02-26T03:48:35;96611.00;;;8.11
15360;BMP280;7779;49.596;11.070;2024-02-26T03:51:01;96602.84;;;8.15
15360;BMP280;7779;49.596;11.070;2024-02-26T03:53:26;96614.63;;;8.18
15360;BMP280;7779;49.596;11.070;2024-02-26T03:55:53;96603.94;;;8.21
15360;BMP280;7779;49.596;11.070;2024-02-26T03:58:20;96609.00;;;8.22
15360;BMP280;7779;49.596;11.070;2024-02-26T04:00:46;96600.63;;;8.22
15360;BMP280;7779;49.596;11.070;2024-02-26T04:03:13;96608.94;;;8.21
15360;BMP280;7779;49.596;11.070;2024-02-26T04:05:39;96607.16;;;8.18
15360;BMP280;7779;49.596;11.070;2024-02-26T04:08:05;96608.72;;;8.15
15360;BMP280;7779;49.596;11.070;2024-02-26T04:10:33;96608.50;;;8.11
15360;BMP280;7779;49.596;11.070;2024-02-26T04:13:05;96612.34;;;8.03
15360;BMP280;7779;49.596;11.070;2024-02-26T04:15:32;96606.25;;;7.96
15360;BMP280;7779;49.596;11.070;2024-02-26T04:17:57;96618.44;;;7.89
15360;BMP280;7779;49.596;11.070;2024-02-26T04:20:23;96609.81;;;7.81
15360;BMP280;7779;49.596;11.070;2024-02-26T04:22:49;96614.44;;;7.72
15360;BMP280;7779;49.596;11.070;2024-02-26T04:25:15;96624.16;;;7.66
15360;BMP280;7779;49.596;11.070;2024-02-26T04:27:40;96626.41;;;7.60
15360;BMP280;7779;49.596;11.070;2024-02-26T04:30:07;96633.63;;;7.54
15360;BMP280;7779;49.596;11.070;2024-02-26T04:32:34;96635.91;;;7.48
15360;BMP280;7779;49.596;11.070;2024-02-26T04:35:02;96634.84;;;7.43
15360;BMP280;7779;49.596;11.070;2024-02-26T04:37:28;96629.59;;;7.38
15360;BMP280;7779;49.596;11.070;2024-02-26T04:39:58;96631.19;;;7.36
15360;BMP280;7779;49.596;11.070;2024-02-26T04:42:24;96626.03;;;7.31
15360;BMP280;7779;49.596;11.070;2024-02-26T04:44:50;96624.28;;;7.29
15360;BMP280;7779;49.596;11.070;2024-02-26T04:47:16;96628.31;;;7.27
15360;BMP280;7779;49.596;11.070;2024-02-26T04:49:41;96634.88;;;7.25
15360;BMP280;7779;49.596;11.070;2024-02-26T04:52:07;96638.16;;;7.24
15360;BMP280;7779;49.596;11.070;2024-02-26T04:54:33;96646.47;;;7.24
15360;BMP280;7779;49.596;11.070;2024-02-26T04:56:59;96645.63;;;7.24
15360;BMP280;7779;49.596;11.070;2024-02-26T04:59:24;96644.78;;;7.23
15360;BMP280;7779;49.596;11.070;2024-02-26T05:01:50;96639.00;;;7.24
15360;BMP280;7779;49.596;11.070;2024-02-26T05:04:18;96655.69;;;7.27
15360;BMP280;7779;49.596;11.070;2024-02-26T05:06:44;96658.19;;;7.27
15360;BMP280;7779;49.596;11.070;2024-02-26T05:09:10;96644.13;;;7.27
15360;BMP280;7779;49.596;11.070;2024-02-26T05:11:36;96641.69;;;7.29
15360;BMP280;7779;49.596;11.070;2024-02-26T05:14:01;96648.38;;;7.30
15360;BMP280;7779;49.596;11.070;2024-02-26T05:16:27;96651.78;;;7.32
15360;BMP280;7779;49.596;11.070;2024-02-26T05:18:53;96654.41;;;7.35
15360;BMP280;7779;49.596;11.070;2024-02-26T05:21:19;96642.84;;;7.37
15360;BMP280;7779;49.596;11.070;2024-02-26T05:23:44;96631.31;;;7.38
15360;BMP280;7779;49.596;11.070;2024-02-26T05:26:10;96633.13;;;7.42
15360;BMP280;7779;49.596;11.070;2024-02-26T05:28:36;96635.69;;;7.44
15360;BMP280;7779;49.596;11.070;2024-02-26T05:31:05;96625.78;;;7.45
15360;BMP280;7779;49.596;11.070;2024-02-26T05:33:31;96634.34;;;7.52
15360;BMP280;7779;49.596;11.070;2024-02-26T05:35:57;96634.56;;;7.56
15360;BMP280;7779;49.596;11.070;2024-02-26T05:38:22;96638.88;;;7.60
15360;BMP280;7779;49.596;11.070;2024-02-26T05:40:48;96642.41;;;7.65
15360;BMP280;7779;49.596;11.070;2024-02-26T05:43:14;96646.78;;;7.71
15360;BMP280;7779;49.596;11.070;2024-02-26T05:45:42;96653.72;;;7.78
15360;BMP280;7779;49.596;11.070;2024-02-26T05:48:08;96652.28;;;7.84
15360;BMP280;7779;49.596;11.070;2024-02-26T05:50:34;96650.84;;;7.89
15360;BMP280;7779;49.596;11.070;2024-02-26T05:53:00;96649.44;;;7.95
15360;BMP280;7779;49.596;11.070;2024-02-26T05:55:26;96652.16;;;8.01
15360;BMP280;7779;49.596;11.070;2024-02-26T05:57:53;96653.25;;;8.08
15360;BMP280;7779;49.596;11.070;2024-02-26T06:00:19;96661.06;;;8.15
15360;BMP280;7779;49.596;11.070;2024-02-26T06:02:44;96667.00;;;8.18
15360;BMP280;7779;49.596;11.070;2024-02-26T06:05:10;96673.03;;;8.23
15360;BMP280;7779;49.596;11.070;2024-02-26T06:07:36;96670.72;;;8.28
15360;BMP280;7779;49.596;11.070;2024-02-26T06:10:03;96670.09;;;8.33
15360;BMP280;7779;49.596;11.070;2024-02-26T06:12:30;96669.47;;;8.39
15360;BMP280;7779;49.596;11.070;2024-02-26T06:14:56;96661.31;;;8.43
15360;BMP280;7779;49.596;11.070;2024-02-26T06:17:22;96663.97;;;8.47
15360;BMP280;7779;49.596;11.070;2024-02-26T06:19:48;96674.13;;;8.52
15360;BMP280;7779;49.596;11.070;2024-02-26T06:22:14;96678.38;;;8.54
15360;BMP280;7779;49.596;11.070;2024-02-26T06:24:39;96679.41;;;8.59
15360;BMP280;7779;49.596;11.070;2024-02-26T06:27:05;96676.22;;;8.63
15360;BMP280;7779;49.596;11.070;2024-02-26T06:29:31;96683.03;;;8.67
15360;BMP280;7779;49.596;11.070;2024-02-26T06:31:56;96683.16;;;8.70
15360;BMP280;7779;49.596;11.070;2024-02-26T06:34:22;96685.84;;;8.76
15360;BMP280;7779;49.596;11.070;2024-02-26T06:36:48;96683.53;;;8.80
15360;BMP280;7779;49.596;11.070;2024-02-26T06:39:13;96687.84;;;8.84
15360;BMP280;7779;49.596;11.070;2024-02-26T06:41:41;96685.50;;;8.89
15360;BMP280;7779;49.596;11.070;2024-02-26T06:44:07;96686.53;;;8.94
15360;BMP280;7779;49.596;11.070;2024-02-26T06:46:33;96686.66;;;8.96
15360;BMP280;7779;49.596;11.070;2024-02-26T06:48:58;96690.94;;;9.00
15360;BMP280;7779;49.596;11.070;2024-02-26T06:51:24;96691.97;;;9.05
15360;BMP280;7779;49.596;11.070;2024-02-26T06:53:50;96689.56;;;9.08
15360;BMP280;7779;49.596;11.070;2024-02-26T06:56:16;96697.16;;;9.11
15360;BMP280;7779;49.596;11.070;2024-02-26T06:58:42;96702.34;;;9.16
15360;BMP280;7779;49.596;11.070;2024-02-26T07:01:07;96703.28;;;9.19
15360;BMP280;7779;49.596;11.070;2024-02-26T07:03:35;96705.13;;;9.23
15360;BMP280;7779;49.596;11.070;2024-02-26T07:06:02;96709.34;;;9.26
15360;BMP280;7779;49.596;11.070;2024-02-26T07:08:28;96712.81;;;9.29
15360;BMP280;7779;49.596;11.070;2024-02-26T07:10:53;96710.44;;;9.32
15360;BMP280;7779;49.596;11.070;2024-02-26T07:13:19;96716.31;;;9.34
15360;BMP280;7779;49.596;11.070;2024-02-26T07:15:46;96718.91;;;9.37
15360;BMP280;7779;49.596;11.070;2024-02-26T07:18:12;96724.03;;;9.40
15360;BMP280;7779;49.596;11.070;2024-02-26T07:20:37;96720.75;;;9.41
15360;BMP280;7779;49.596;11.070;2024-02-26T07:23:03;96719.16;;;9.43
15360;BMP280;7779;49.596;11.070;2024-02-26T07:25:29;96717.53;;;9.45
15360;BMP280;7779;49.596;11.070;2024-02-26T07:27:55;96726.84;;;9.49
15360;BMP280;7779;49.596;11.070;2024-02-26T07:30:20;96727.00;;;9.53
15360;BMP280;7779;49.596;11.070;2024-02-26T07:32:46;96732.22;;;9.59
15360;BMP280;7779;49.596;11.070;2024-02-26T07:35:12;96729.84;;;9.64
15360;BMP280;7779;49.596;11.070;2024-02-26T07:37:38;96723.38;;;9.69
15360;BMP280;7779;49.596;11.070;2024-02-26T07:40:04;96721.00;;;9.73
15360;BMP280;7779;49.596;11.070;2024-02-26T07:42:31;96721.13;;;9.76
15360;BMP280;7779;49.596;11.070;2024-02-26T07:44:57;96717.91;;;9.80
15360;BMP280;7779;49.596;11.070;2024-02-26T07:47:22;96729.78;;;9.85
15360;BMP280;7779;49.596;11.070;2024-02-26T07:49:48;96743.38;;;9.92
15360;BMP280;7779;49.596;11.070;2024-02-26T07:52:14;96737.03;;;10.01
15360;BMP280;7779;49.596;11.070;2024-02-26T07:54:39;96756.56;;;10.11
15360;BMP280;7779;49.596;11.070;2024-02-26T07:57:05;96763.44;;;10.18
15360;BMP280;7779;49.596;11.070;2024-02-26T07:59:31;96751.16;;;10.25
15360;BMP280;7779;49.596;11.070;2024-02-26T08:01:57;96762.28;;;10.33
15360;BMP280;7779;49.596;11.070;2024-02-26T08:04:23;96753.41;;;10.43
15360;BMP280;7779;49.596;11.070;2024-02-26T08:06:49;96744.56;;;10.53
15360;BMP280;7779;49.596;11.070;2024-02-26T08:09:14;96747.41;;;10.64
15360;BMP280;7779;49.596;11.070;2024-02-26T08:11:40;96744.41;;;10.75
15360;BMP280;7779;49.596;11.070;2024-02-26T08:14:06;96745.69;;;10.89
15360;BMP280;7779;49.596;11.070;2024-02-26T08:16:32;96752.66;;;10.99
15360;BMP280;7779;49.596;11.070;2024-02-26T08:18:57;96752.09;;;11.07
15360;BMP280;7779;49.596;11.070;2024-02-26T08:21:23;96739.75;;;11.15
15360;BMP280;7779;49.596;11.070;2024-02-26T08:23:49;96748.28;;;11.20
15360;BMP280;7779;49.596;11.070;2024-02-26T08:26:15;96745.03;;;11.24
15360;BMP280;7779;49.596;11.070;2024-02-26T08:28:40;96750.16;;;11.27
15360;BMP280;7779;49.596;11.070;2024-02-26T08:31:06;96754.44;;;11.30
15360;BMP280;7779;49.596;11.070;2024-02-26T08:33:32;96757.84;;;11.32
15360;BMP280;7779;49.596;11.070;2024-02-26T08:36:05;96767.06;;;11.33
15360;BMP280;7779;49.596;11.070;2024-02-26T08:38:30;96774.59;;;11.35
15360;BMP280;7779;49.596;11.070;2024-02-26T08:40:56;96788.91;;;11.37
15360;BMP280;7779;49.596;11.070;2024-02-26T08:43:22;96786.50;;;11.42
15360;BMP280;7779;49.596;11.070;2024-02-26T08:45:47;96785.97;;;11.50
15360;BMP280;7779;49.596;11.070;2024-02-26T08:48:13;96781.25;;;11.61
15360;BMP280;7779;49.596;11.070;2024-02-26T08:50:39;96783.22;;;11.72
15360;BMP280;7779;49.596;11.070;2024-02-26T08:53:04;96785.16;;;11.82
15360;BMP280;7779;49.596;11.070;2024-02-26T08:55:31;96775.38;;;11.91
15360;BMP280;7779;49.596;11.070;2024-02-26T08:57:56;96779.75;;;11.98
15360;BMP280;7779;49.596;11.070;2024-02-26T09:00:22;96772.41;;;12.04
15360;BMP280;7779;49.596;11.070;2024-02-26T09:02:48;96770.81;;;12.08
15360;BMP280;7779;49.596;11.070;2024-02-26T09:05:15;96778.44;;;12.11
15360;BMP280;7779;49.596;11.070;2024-02-26T09:07:41;96781.03;;;12.14
15360;BMP280;7779;49.596;11.070;2024-02-26T09:10:07;96773.53;;;12.16
15360;BMP280;7779;49.596;11.070;2024-02-26T09:12:37;96777.78;;;12.18
15360;BMP280;7779;49.596;11.070;2024-02-26T09:15:04;96765.25;;;12.18
15360;BMP280;7779;49.596;11.070;2024-02-26T09:17:29;96769.53;;;12.22
15360;BMP280;7779;49.596;11.070;2024-02-26T09:19:55;96766.28;;;12.26
15360;BMP280;7779;49.596;11.070;2024-02-26T09:22:21;96771.44;;;12.32
15360;BMP280;7779;49.596;11.070;2024-02-26T09:24:46;96775.00;;;12.40
15360;BMP280;7779;49.596;11.070;2024-02-26T09:27:12;96765.94;;;12.47
15360;BMP280;7779;49.596;11.070;2024-02-26T09:29:38;96768.56;;;12.51
15360;BMP280;7779;49.596;11.070;2024-02-26T09:32:04;96763.63;;;12.55
15360;BMP280;7779;49.596;11.070;2024-02-26T09:34:30;96767.94;;;12.59
15360;BMP280;7779;49.596;11.070;2024-02-26T09:36:56;96768.84;;;12.63
15360;BMP280;7779;49.596;11.070;2024-02-26T09:39:21;96765.56;;;12.65
15360;BMP280;7779;49.596;11.070;2024-02-26T09:41:48;96774.06;;;12.70
15360;BMP280;7779;49.596;11.070;2024-02-26T09:44:19;96774.25;;;12.78
15360;BMP280;7779;49.596;11.070;2024-02-26T09:46:48;96772.84;;;12.88
15360;BMP280;7779;49.596;11.070;2024-02-26T09:49:19;96772.19;;;12.95
15360;BMP280;7779;49.596;11.070;2024-02-26T09:51:47;96767.34;;;13.04
15360;BMP280;7779;49.596;11.070;2024-02-26T09:54:16;96760.81;;;13.12
15360;BMP280;7779;49.596;11.070;2024-02-26T09:56:42;96756.75;;;13.17
15360;BMP280;7779;49.596;11.070;2024-02-26T09:59:16;96761.00;;;13.21
15360;BMP280;7779;49.596;11.070;2024-02-26T10:01:45;96756.84;;;13.23
15360;BMP280;7779;49.596;11.070;2024-02-26T10:04:12;96753.56;;;13.26
15360;BMP280;7779;49.596;11.070;2024-02-26T10:06:40;96754.53;;;13.32
15360;BMP280;7779;49.596;11.070;2024-02-26T10:09:09;96739.56;;;13.38
15360;BMP280;7779;49.596;11.070;2024-02-26T10:11:36;96725.41;;;13.43
15360;BMP280;7779;49.596;11.070;2024-02-26T10:14:03;96715.47;;;13.49
15360;BMP280;7779;49.596;11.070;2024-02-26T10:16:29;96713.03;;;13.52
15360;BMP280;7779;49.596;11.070;2024-02-26T10:18:55;96720.59;;;13.55
15360;BMP280;7779;49.596;11.070;2024-02-26T10:21:22;96729.06;;;13.57
15360;BMP280;7779;49.596;11.070;2024-02-26T10:23:49;96737.53;;;13.62
15360;BMP280;7779;49.596;11.070;2024-02-26T10:26:16;96751.13;;;13.69
15360;BMP280;7779;49.596;11.070;2024-02-26T10:28:46;96753.81;;;13.80
15360;BMP280;7779;49.596;11.070;2024-02-26T10:31:14;96754.91;;;13.94
15360;BMP280;7779;49.596;11.070;2024-02-26T10:33:41;96752.78;;;14.11
15360;BMP280;7779;49.596;11.070;2024-02-26T10:36:08;96742.16;;;14.29
15360;BMP280;7779;49.596;11.070;2024-02-26T10:38:36;96744.00;;;14.39
15360;BMP280;7779;49.596;11.070;2024-02-26T10:41:06;96744.97;;;14.45
15360;BMP280;7779;49.596;11.070;2024-02-26T10:43:32;96753.41;;;14.47
15360;BMP280;7779;49.596;11.070;2024-02-26T10:45:58;96759.34;;;14.50
15360;BMP280;7779;49.596;11.070;2024-02-26T10:48:24;96766.09;;;14.54
15360;BMP280;7779;49.596;11.070;2024-02-26T10:50:50;96767.03;;;14.59
15360;BMP280;7779;49.596;11.070;2024-02-26T10:53:23;96762.09;;;14.65
15360;BMP280;7779;49.596;11.070;2024-02-26T10:56:00;96768.91;;;14.72
15360;BMP280;7779;49.596;11.070;2024-02-26T10:58:28;96769.88;;;14.80
15360;BMP280;7779;49.596;11.070;2024-02-26T11:00:57;96773.41;;;14.91
15360;BMP280;7779;49.596;11.070;2024-02-26T11:03:27;96768.50;;;15.00
15360;BMP280;7779;49.596;11.070;2024-02-26T11:05:55;96765.28;;;15.10
15360;BMP280;7779;49.596;11.070;2024-02-26T11:08:22;96773.88;;;15.21
15360;BMP280;7779;49.596;11.070;2024-02-26T11:10:53;96764.72;;;15.28
15360;BMP280;7779;49.596;11.070;2024-02-26T11:13:21;96771.59;;;15.40
15360;BMP280;7779;49.596;11.070;2024-02-26T11:15:47;96768.41;;;15.51
15360;BMP280;7779;49.596;11.070;2024-02-26T11:18:15;96773.56;;;15.60
15360;BMP280;7779;49.596;11.070;2024-02-26T11:20:43;96773.66;;;15.67
15360;BMP280;7779;49.596;11.070;2024-02-26T11:23:09;96772.03;;;15.74
15360;BMP280;7779;49.596;11.070;2024-02-26T11:25:36;96767.06;;;15.81
15360;BMP280;7779;49.596;11.070;2024-02-26T11:28:10;96773.88;;;15.88
15360;BMP280;7779;49.596;11.070;2024-02-26T11:30:43;96775.63;;;15.91
15360;BMP280;7779;49.596;11.070;2024-02-26T11:33:10;96757.94;;;15.94
15360;BMP280;7779;49.596;11.070;2024-02-26T11:35:38;96758.03;;;16.00
15360;BMP280;7779;49.596;11.070;2024-02-26T11:38:05;96758.94;;;16.03
15360;BMP280;7779;49.596;11.070;2024-02-26T11:40:37;96757.25;;;16.08
15360;BMP280;7779;49.596;11.070;2024-02-26T11:43:05;96747.22;;;16.12
15360;BMP280;7779;49.596;11.070;2024-02-26T11:48:37;96745.56;;;16.17
15360;BMP280;7779;49.596;11.070;2024-02-26T11:51:05;96749.75;;;16.15
15360;BMP280;7779;49.596;11.070;2024-02-26T11:53:31;96754.81;;;16.15
15360;BMP280;7779;49.596;11.070;2024-02-26T11:59:10;96756.53;;;16.16
15360;BMP280;7779;49.596;11.070;2024-02-26T12:01:44;96760.72;;;16.17
15360;BMP280;7779;49.596;11.070;2024-02-26T12:04:19;96757.47;;;16.24
15360;BMP280;7779;49.596;11.070;2024-02-26T12:07:02;96755.06;;;16.36
15360;BMP280;7779;49.596;11.070;2024-02-26T12:09:32;96762.72;;;16.45
15360;BMP280;7779;49.596;11.070;2024-02-26T12:12:01;96771.22;;;16.53
15360;BMP280;7779;49.596;11.070;2024-02-26T12:14:27;96762.00;;;16.58
15360;BMP280;7779;49.596;11.070;2024-02-26T12:16:55;96751.91;;;16.64
15360;BMP280;7779;49.596;11.070;2024-02-26T12:19:22;96747.75;;;16.69
15360;BMP280;7779;49.596;11.070;2024-02-26T12:21:52;96745.28;;;16.78
15360;BMP280;7779;49.596;11.070;2024-02-26T12:24:21;96757.13;;;16.81
15360;BMP280;7779;49.596;11.070;2024-02-26T12:26:47;96754.59;;;16.83
15360;BMP280;7779;49.596;11.070;2024-02-26T12:29:13;96757.13;;;16.83
15360;BMP280;7779;49.596;11.070;2024-02-26T12:31:40;96763.88;;;16.82
15360;BMP280;7779;49.596;11.070;2024-02-26T12:34:07;96761.38;;;16.84
15360;BMP280;7779;49.596;11.070;2024-02-26T12:36:35;96760.56;;;16.88
15360;BMP280;7779;49.596;11.070;2024-02-26T12:39:05;96763.94;;;16.91
15360;BMP280;7779;49.596;11.070;2024-02-26T12:41:35;96776.59;;;16.91
15360;BMP280;7779;49.596;11.070;2024-02-26T12:44:01;96772.34;;;16.90
15360;BMP280;7779;49.596;11.070;2024-02-26T12:46:27;96769.00;;;16.90
15360;BMP280;7779;49.596;11.070;2024-02-26T12:48:56;96766.47;;;16.90
15360;BMP280;7779;49.596;11.070;2024-02-26T12:51:25;96768.13;;;16.88
15360;BMP280;7779;49.596;11.070;2024-02-26T12:53:51;96765.59;;;16.86
15360;BMP280;7779;49.596;11.070;2024-02-26T12:56:18;96763.03;;;16.85
15360;BMP280;7779;49.596;11.070;2024-02-26T12:58:45;96762.16;;;16.81
15360;BMP280;7779;49.596;11.070;2024-02-26T13:01:16;96765.53;;;16.79
15360;BMP280;7779;49.596;11.070;2024-02-26T13:03:43;96762.13;;;16.76
15360;BMP280;7779;49.596;11.070;2024-02-26T13:06:10;96761.25;;;16.72
15360;BMP280;7779;49.596;11.070;2024-02-26T13:08:36;96768.00;;;16.72
15360;BMP280;7779;49.596;11.070;2024-02-26T13:11:02;96765.50;;;16.72
15360;BMP280;7779;49.596;11.070;2024-02-26T13:13:28;96769.72;;;16.74
15360;BMP280;7779;49.596;11.070;2024-02-26T13:16:10;96776.47;;;16.78
15360;BMP280;7779;49.596;11.070;2024-02-26T13:18:39;96777.38;;;16.84
15360;BMP280;7779;49.596;11.070;2024-02-26T13:21:13;96774.91;;;16.93
15360;BMP280;7779;49.596;11.070;2024-02-26T13:23:41;96772.47;;;17.02
15360;BMP280;7779;49.596;11.070;2024-02-26T13:26:11;96777.59;;;17.11
15360;BMP280;7779;49.596;11.070;2024-02-26T13:28:37;96776.81;;;17.17
15360;BMP280;7779;49.596;11.070;2024-02-26T13:31:04;96769.22;;;17.21
15360;BMP280;7779;49.596;11.070;2024-02-26T13:33:33;96775.97;;;17.21
15360;BMP280;7779;49.596;11.070;2024-02-26T13:36:00;96774.28;;;17.21
15360;BMP280;7779;49.596;11.070;2024-02-26T13:38:27;96784.41;;;17.21
15360;BMP280;7779;49.596;11.070;2024-02-26T13:40:56;96786.09;;;17.21
15360;BMP280;7779;49.596;11.070;2024-02-26T13:43:22;96795.38;;;17.23
15360;BMP280;7779;49.596;11.070;2024-02-26T13:45:47;96794.59;;;17.30
15360;BMP280;7779;49.596;11.070;2024-02-26T13:48:14;96789.56;;;17.39
15360;BMP280;7779;49.596;11.070;2024-02-26T13:50:41;96789.63;;;17.48
15360;BMP280;7779;49.596;11.070;2024-02-26T13:53:12;96788.81;;;17.53
15360;BMP280;7779;49.596;11.070;2024-02-26T13:55:39;96787.16;;;17.58
15360;BMP280;7779;49.596;11.070;2024-02-26T13:58:05;96784.63;;;17.57
15360;BMP280;7779;49.596;11.070;2024-02-26T14:00:32;96786.28;;;17.55
15360;BMP280;7779;49.596;11.070;2024-02-26T14:03:00;96791.34;;;17.52
15360;BMP280;7779;49.596;11.070;2024-02-26T14:05:26;96784.56;;;17.48
15360;BMP280;7779;49.596;11.070;2024-02-26T14:07:52;96790.47;;;17.44
15360;BMP280;7779;49.596;11.070;2024-02-26T14:10:19;96789.63;;;17.42
15360;BMP280;7779;49.596;11.070;2024-02-26T14:12:45;96792.94;;;17.38
15360;BMP280;7779;49.596;11.070;2024-02-26T14:15:11;96795.47;;;17.33
15360;BMP280;7779;49.596;11.070;2024-02-26T14:17:37;96803.00;;;17.29
15360;BMP280;7779;49.596;11.070;2024-02-26T14:20:03;96804.66;;;17.21